Colorado Springs, CO (80951)

3:50 AM MDT on September 03, 2015 (GMT -0600)
APRSWXNET | | Change Station
CLOSE
Current Station
Personal Weather Station
Location: Colorado Springs, CO
Elevation: 6250 ft
Nearby Weather Stations

Elev 6250 ft 38.85 °N, 104.75 °W | Updated 37 minutes ago

Mostly Cloudy
Mostly Cloudy
67 °F
Feels Like 67 °F
N
1
Wind Variable Wind from NE
Gusts 3.0 mph

Today
High -- | Low -- °F
--% Chance of Precip.
Yesterday
High -- | Low -- °F
Precip. -- in
6:29 AM 7:26 PM
Waning Gibbous, 72% visible
Pressure 29.79 in
Visibility 10.0 miles
Clouds Few 12000 ft
Scattered Clouds 19000 ft
Dew Point 41 °F
Humidity 38%
Rainfall in
Snow Depth Not available.
UV 0 out of 12
Pollen 10.50 out of 12
Air Quality Not available.
Flu Activity Not available.
METAR KCOS 030854Z 01005KT 10SM FEW120 SCT190 18/06 A3008 RMK AO2 SLP088 T01830061 56010
Pressure 29.79 in
Visibility 10.0 miles
Clouds Few 12000 ft
Scattered Clouds 19000 ft
Dew Point 41 °F
Humidity 38%
Rainfall in
Snow Depth Not available.
UV 0 out of 12
Pollen 10.50 out of 12
Air Quality Not available.
Flu Activity Not available.
METAR KCOS 030854Z 01005KT 10SM FEW120 SCT190 18/06 A3008 RMK AO2 SLP088 T01830061 56010

10-Day Weather Forecast

×

Almanac

Astronomy

Sep. 03, 2015 Rise Set
Actual Time
Civil Twilight
Nautical Twilight
Astronomical Twilight
Moon
Length of Visible Light
Length of Day
Tomorrow will be .
, % of the Moon is Illuminated

Today's Extremes

State Highs State Lows

Community

WunderPhotos

Upload Photos

1,851,923 photos uploaded!

WunderBlogs® & News

Nearby

Air Quality

  Air Quality AQ Index Pollutant
Not available.

Snow Depth

Station Depth Elevation

Earthquake Activity

City Distance Mag. Time & Date
Minimum magnitude displayed is 2.5.

Coastal Water Temperatures

Place Temperature

Stations

Nearby Weather Stations

Station Location Temp. Windchill Dew Point Humidity Wind Precip. Elev Updated Type